sensor_id;sensor_type;location;lat;lon;timestamp;P1;P2;P0
78512;PMS5003;67809;55.034;73.462;2023-05-10T00:01:13;88.00;73.00;47.50
78512;PMS5003;67809;55.034;73.462;2023-05-10T00:03:39;83.25;71.00;48.00
78512;PMS5003;67809;55.034;73.462;2023-05-10T00:06:06;90.25;74.25;48.50
78512;PMS5003;67809;55.034;73.462;2023-05-10T00:08:32;90.00;75.00;50.33
78512;PMS5003;67809;55.034;73.462;2023-05-10T00:10:58;91.00;76.00;50.00
78512;PMS5003;67809;55.034;73.462;2023-05-10T00:13:24;88.00;73.00;48.50
78512;PMS5003;67809;55.034;73.462;2023-05-10T00:15:50;87.50;72.50;49.00
78512;PMS5003;67809;55.034;73.462;2023-05-10T00:18:16;88.33;74.00;48.67
78512;PMS5003;67809;55.034;73.462;2023-05-10T00:20:42;94.75;76.00;51.00
78512;PMS5003;67809;55.034;73.462;2023-05-10T00:23:11;93.75;75.00;49.00
78512;PMS5003;67809;55.034;73.462;2023-05-10T00:25:37;92.25;77.00;52.00
78512;PMS5003;67809;55.034;73.462;2023-05-10T00:28:03;87.67;71.67;49.67
78512;PMS5003;67809;55.034;73.462;2023-05-10T00:30:29;94.25;76.75;52.25
78512;PMS5003;67809;55.034;73.462;2023-05-10T00:32:55;92.00;75.50;51.75
78512;PMS5003;67809;55.034;73.462;2023-05-10T00:35:21;95.25;78.50;52.75
78512;PMS5003;67809;55.034;73.462;2023-05-10T00:37:52;92.00;75.25;51.00
78512;PMS5003;67809;55.034;73.462;2023-05-10T00:40:18;90.00;76.00;51.00
78512;PMS5003;67809;55.034;73.462;2023-05-10T00:42:51;88.00;74.00;50.00
78512;PMS5003;67809;55.034;73.462;2023-05-10T00:45:17;88.75;74.00;49.50
78512;PMS5003;67809;55.034;73.462;2023-05-10T00:47:44;88.00;72.75;47.25
78512;PMS5003;67809;55.034;73.462;2023-05-10T00:50:11;87.00;75.00;50.00
78512;PMS5003;67809;55.034;73.462;2023-05-10T00:52:37;92.00;74.75;48.00
78512;PMS5003;67809;55.034;73.462;2023-05-10T00:55:03;90.50;74.50;50.00
78512;PMS5003;67809;55.034;73.462;2023-05-10T00:57:31;80.00;67.25;46.25
78512;PMS5003;67809;55.034;73.462;2023-05-10T00:59:57;87.00;71.00;47.00
78512;PMS5003;67809;55.034;73.462;2023-05-10T01:02:23;86.00;70.50;47.75
78512;PMS5003;67809;55.034;73.462;2023-05-10T01:04:50;87.75;75.00;48.75
78512;PMS5003;67809;55.034;73.462;2023-05-10T01:07:16;84.00;71.00;49.00
78512;PMS5003;67809;55.034;73.462;2023-05-10T01:09:42;86.00;71.00;47.33
78512;PMS5003;67809;55.034;73.462;2023-05-10T01:12:10;81.50;68.50;46.00
78512;PMS5003;67809;55.034;73.462;2023-05-10T01:14:37;81.00;69.00;46.25
78512;PMS5003;67809;55.034;73.462;2023-05-10T01:17:03;81.50;67.50;46.00
78512;PMS5003;67809;55.034;73.462;2023-05-10T01:19:31;80.67;67.67;44.33
78512;PMS5003;67809;55.034;73.462;2023-05-10T01:25:08;81.25;69.50;47.00
78512;PMS5003;67809;55.034;73.462;2023-05-10T01:35:37;77.50;63.00;42.50
78512;PMS5003;67809;55.034;73.462;2023-05-10T01:43:09;73.50;58.75;40.00
78512;PMS5003;67809;55.034;73.462;2023-05-10T01:45:37;72.25;57.75;37.75
78512;PMS5003;67809;55.034;73.462;2023-05-10T01:48:08;71.00;56.00;39.00
78512;PMS5003;67809;55.034;73.462;2023-05-10T01:50:36;69.00;54.00;36.00
78512;PMS5003;67809;55.034;73.462;2023-05-10T01:53:05;70.25;54.75;36.75
78512;PMS5003;67809;55.034;73.462;2023-05-10T01:55:34;71.00;57.25;39.00
78512;PMS5003;67809;55.034;73.462;2023-05-10T01:58:04;70.75;55.25;38.00
78512;PMS5003;67809;55.034;73.462;2023-05-10T02:00:31;65.67;51.33;34.00
78512;PMS5003;67809;55.034;73.462;2023-05-10T02:02:58;66.50;51.50;34.00
78512;PMS5003;67809;55.034;73.462;2023-05-10T02:05:26;67.00;52.00;34.00
78512;PMS5003;67809;55.034;73.462;2023-05-10T02:07:53;63.00;49.25;32.50
78512;PMS5003;67809;55.034;73.462;2023-05-10T02:10:19;63.67;50.67;34.00
78512;PMS5003;67809;55.034;73.462;2023-05-10T02:12:47;66.00;52.00;35.00
78512;PMS5003;67809;55.034;73.462;2023-05-10T02:15:15;62.00;49.00;33.00
78512;PMS5003;67809;55.034;73.462;2023-05-10T02:17:43;61.75;47.75;31.75
78512;PMS5003;67809;55.034;73.462;2023-05-10T02:20:11;61.75;48.50;32.25
78512;PMS5003;67809;55.034;73.462;2023-05-10T02:22:38;60.00;47.00;31.00
78512;PMS5003;67809;55.034;73.462;2023-05-10T02:25:05;65.50;51.00;34.00
78512;PMS5003;67809;55.034;73.462;2023-05-10T02:27:32;60.75;48.25;31.50
78512;PMS5003;67809;55.034;73.462;2023-05-10T02:30:00;61.00;48.00;33.00
78512;PMS5003;67809;55.034;73.462;2023-05-10T02:32:26;57.00;46.00;32.00
78512;PMS5003;67809;55.034;73.462;2023-05-10T02:34:53;60.00;47.75;31.50
78512;PMS5003;67809;55.034;73.462;2023-05-10T02:37:20;61.75;48.25;32.00
78512;PMS5003;67809;55.034;73.462;2023-05-10T02:39:50;62.00;48.00;31.75
78512;PMS5003;67809;55.034;73.462;2023-05-10T02:42:18;61.00;47.25;31.50
78512;PMS5003;67809;55.034;73.462;2023-05-10T02:44:45;57.75;46.00;30.75
78512;PMS5003;67809;55.034;73.462;2023-05-10T02:47:14;60.50;48.00;32.00
78512;PMS5003;67809;55.034;73.462;2023-05-10T02:49:40;59.25;47.25;31.00
78512;PMS5003;67809;55.034;73.462;2023-05-10T02:52:08;56.50;45.00;30.75
78512;PMS5003;67809;55.034;73.462;2023-05-10T02:54:39;56.50;45.25;30.50
78512;PMS5003;67809;55.034;73.462;2023-05-10T02:57:07;57.00;47.00;31.25
78512;PMS5003;67809;55.034;73.462;2023-05-10T02:59:35;58.50;45.75;30.25
78512;PMS5003;67809;55.034;73.462;2023-05-10T03:02:01;58.25;46.50;30.50
78512;PMS5003;67809;55.034;73.462;2023-05-10T03:04:27;52.25;41.25;28.00
78512;PMS5003;67809;55.034;73.462;2023-05-10T03:06:57;51.50;41.25;27.75
78512;PMS5003;67809;55.034;73.462;2023-05-10T03:09:24;56.00;44.00;30.00
78512;PMS5003;67809;55.034;73.462;2023-05-10T03:11:58;52.75;42.00;28.50
78512;PMS5003;67809;55.034;73.462;2023-05-10T03:14:34;49.00;39.25;26.75
78512;PMS5003;67809;55.034;73.462;2023-05-10T03:17:10;48.00;37.00;25.00
78512;PMS5003;67809;55.034;73.462;2023-05-10T03:19:53;52.00;41.00;28.00
78512;PMS5003;67809;55.034;73.462;2023-05-10T03:22:26;53.00;41.50;27.50
78512;PMS5003;67809;55.034;73.462;2023-05-10T03:24:55;50.50;40.50;28.00
78512;PMS5003;67809;55.034;73.462;2023-05-10T03:27:25;53.00;41.75;28.00
78512;PMS5003;67809;55.034;73.462;2023-05-10T03:29:53;49.00;40.67;27.33
78512;PMS5003;67809;55.034;73.462;2023-05-10T03:32:20;52.00;39.75;27.00
78512;PMS5003;67809;55.034;73.462;2023-05-10T03:34:46;52.25;41.00;28.00
78512;PMS5003;67809;55.034;73.462;2023-05-10T03:37:12;56.00;43.50;29.00
78512;PMS5003;67809;55.034;73.462;2023-05-10T03:39:39;56.75;44.75;29.75
78512;PMS5003;67809;55.034;73.462;2023-05-10T03:42:08;54.50;43.00;29.50
78512;PMS5003;67809;55.034;73.462;2023-05-10T03:44:38;56.00;44.75;30.50
78512;PMS5003;67809;55.034;73.462;2023-05-10T03:47:04;64.75;52.25;37.50
78512;PMS5003;67809;55.034;73.462;2023-05-10T03:49:34;59.00;48.00;33.00
78512;PMS5003;67809;55.034;73.462;2023-05-10T03:52:01;57.00;46.00;32.00
78512;PMS5003;67809;55.034;73.462;2023-05-10T03:54:27;59.75;48.00;32.00
78512;PMS5003;67809;55.034;73.462;2023-05-10T03:56:54;63.75;50.00;33.75
78512;PMS5003;67809;55.034;73.462;2023-05-10T03:59:21;57.75;47.00;31.75
78512;PMS5003;67809;55.034;73.462;2023-05-10T04:01:47;60.00;47.75;33.00
78512;PMS5003;67809;55.034;73.462;2023-05-10T04:04:13;57.00;45.00;31.00
78512;PMS5003;67809;55.034;73.462;2023-05-10T04:06:40;54.75;43.00;29.00
78512;PMS5003;67809;55.034;73.462;2023-05-10T04:09:06;55.25;45.00;30.00
78512;PMS5003;67809;55.034;73.462;2023-05-10T04:11:32;57.50;45.00;30.00
78512;PMS5003;67809;55.034;73.462;2023-05-10T04:13:58;53.25;43.25;29.75
78512;PMS5003;67809;55.034;73.462;2023-05-10T04:16:24;52.50;41.50;29.00
78512;PMS5003;67809;55.034;73.462;2023-05-10T04:18:50;52.50;43.00;29.75
78512;PMS5003;67809;55.034;73.462;2023-05-10T04:21:16;53.00;43.00;30.00
78512;PMS5003;67809;55.034;73.462;2023-05-10T04:23:42;47.75;40.00;26.75
78512;PMS5003;67809;55.034;73.462;2023-05-10T04:26:09;49.00;41.00;28.00
78512;PMS5003;67809;55.034;73.462;2023-05-10T04:28:36;46.50;38.50;27.00
78512;PMS5003;67809;55.034;73.462;2023-05-10T04:31:02;48.33;39.00;26.33
78512;PMS5003;67809;55.034;73.462;2023-05-10T04:33:29;45.00;37.00;26.00
78512;PMS5003;67809;55.034;73.462;2023-05-10T04:35:55;48.75;38.75;26.00
78512;PMS5003;67809;55.034;73.462;2023-05-10T04:38:22;46.50;37.00;25.50
78512;PMS5003;67809;55.034;73.462;2023-05-10T04:40:48;43.00;35.00;24.33
78512;PMS5003;67809;55.034;73.462;2023-05-10T04:43:15;45.50;37.50;26.00
78512;PMS5003;67809;55.034;73.462;2023-05-10T04:45:41;48.00;38.00;26.50
78512;PMS5003;67809;55.034;73.462;2023-05-10T04:48:07;56.00;44.25;30.00
78512;PMS5003;67809;55.034;73.462;2023-05-10T04:50:33;47.00;39.00;26.00
78512;PMS5003;67809;55.034;73.462;2023-05-10T04:52:59;41.00;34.00;24.00
78512;PMS5003;67809;55.034;73.462;2023-05-10T04:55:25;42.00;35.00;24.00
78512;PMS5003;67809;55.034;73.462;2023-05-10T04:57:52;39.00;32.25;23.00
78512;PMS5003;67809;55.034;73.462;2023-05-10T05:00:20;39.00;33.00;23.00
78512;PMS5003;67809;55.034;73.462;2023-05-10T05:02:46;38.75;32.00;23.00
78512;PMS5003;67809;55.034;73.462;2023-05-10T05:05:13;39.00;32.50;22.50
78512;PMS5003;67809;55.034;73.462;2023-05-10T05:07:39;42.50;34.00;23.00
78512;PMS5003;67809;55.034;73.462;2023-05-10T05:10:05;39.75;33.00;23.00
78512;PMS5003;67809;55.034;73.462;2023-05-10T05:12:32;43.00;35.33;25.00
78512;PMS5003;67809;55.034;73.462;2023-05-10T05:14:58;44.00;37.00;25.00
78512;PMS5003;67809;55.034;73.462;2023-05-10T05:17:24;45.00;36.75;24.75
78512;PMS5003;67809;55.034;73.462;2023-05-10T05:19:50;45.50;37.00;24.75
78512;PMS5003;67809;55.034;73.462;2023-05-10T05:22:16;41.00;33.67;23.00
78512;PMS5003;67809;55.034;73.462;2023-05-10T05:24:43;40.00;33.00;22.00
78512;PMS5003;67809;55.034;73.462;2023-05-10T05:27:10;42.50;34.75;25.00
78512;PMS5003;67809;55.034;73.462;2023-05-10T05:29:37;39.00;33.00;22.75
78512;PMS5003;67809;55.034;73.462;2023-05-10T05:32:03;36.00;30.00;21.33
78512;PMS5003;67809;55.034;73.462;2023-05-10T05:34:29;44.00;35.00;24.00
78512;PMS5003;67809;55.034;73.462;2023-05-10T05:36:55;40.75;33.75;24.00
78512;PMS5003;67809;55.034;73.462;2023-05-10T05:39:21;41.00;34.00;23.00
78512;PMS5003;67809;55.034;73.462;2023-05-10T05:41:48;42.00;34.75;24.00
78512;PMS5003;67809;55.034;73.462;2023-05-10T05:44:14;40.00;34.00;23.25
78512;PMS5003;67809;55.034;73.462;2023-05-10T05:46:40;40.00;33.00;23.00
78512;PMS5003;67809;55.034;73.462;2023-05-10T05:49:06;38.00;32.00;22.00
78512;PMS5003;67809;55.034;73.462;2023-05-10T05:51:32;37.33;32.00;21.00
78512;PMS5003;67809;55.034;73.462;2023-05-10T05:54:00;38.50;32.25;22.50
78512;PMS5003;67809;55.034;73.462;2023-05-10T05:56:26;40.50;32.50;22.00
78512;PMS5003;67809;55.034;73.462;2023-05-10T05:58:52;43.00;35.00;23.50
78512;PMS5003;67809;55.034;73.462;2023-05-10T06:01:19;41.00;34.00;23.00
78512;PMS5003;67809;55.034;73.462;2023-05-10T06:03:46;37.75;31.75;22.00
78512;PMS5003;67809;55.034;73.462;2023-05-10T06:06:15;40.00;33.00;23.00
78512;PMS5003;67809;55.034;73.462;2023-05-10T06:08:41;41.00;34.00;22.75
78512;PMS5003;67809;55.034;73.462;2023-05-10T06:11:08;40.67;32.67;22.00
78512;PMS5003;67809;55.034;73.462;2023-05-10T06:13:34;35.25;31.00;21.00
78512;PMS5003;67809;55.034;73.462;2023-05-10T06:16:01;37.75;32.00;21.50
78512;PMS5003;67809;55.034;73.462;2023-05-10T06:18:28;37.00;30.75;21.00
78512;PMS5003;67809;55.034;73.462;2023-05-10T06:20:57;36.00;29.00;20.00
78512;PMS5003;67809;55.034;73.462;2023-05-10T06:23:23;38.00;32.25;22.00
78512;PMS5003;67809;55.034;73.462;2023-05-10T06:25:51;40.00;33.00;23.00
78512;PMS5003;67809;55.034;73.462;2023-05-10T06:28:17;40.00;33.00;23.00
78512;PMS5003;67809;55.034;73.462;2023-05-10T06:30:46;39.75;32.50;22.00
78512;PMS5003;67809;55.034;73.462;2023-05-10T06:33:14;37.67;32.00;22.00
78512;PMS5003;67809;55.034;73.462;2023-05-10T06:35:41;39.00;32.00;22.75
78512;PMS5003;67809;55.034;73.462;2023-05-10T06:38:07;39.00;33.00;23.00
78512;PMS5003;67809;55.034;73.462;2023-05-10T06:40:33;36.75;30.25;21.25
78512;PMS5003;67809;55.034;73.462;2023-05-10T06:43:03;38.00;31.50;22.00
78512;PMS5003;67809;55.034;73.462;2023-05-10T06:45:32;33.75;29.00;20.00
78512;PMS5003;67809;55.034;73.462;2023-05-10T06:48:01;39.00;33.25;22.25
78512;PMS5003;67809;55.034;73.462;2023-05-10T06:50:31;34.25;29.00;20.00
78512;PMS5003;67809;55.034;73.462;2023-05-10T06:52:58;30.33;26.33;18.67
78512;PMS5003;67809;55.034;73.462;2023-05-10T06:55:24;30.00;26.00;18.00
78512;PMS5003;67809;55.034;73.462;2023-05-10T06:57:51;36.50;30.25;21.00
78512;PMS5003;67809;55.034;73.462;2023-05-10T07:00:17;34.00;28.00;19.00
78512;PMS5003;67809;55.034;73.462;2023-05-10T07:02:45;32.00;28.00;20.00
78512;PMS5003;67809;55.034;73.462;2023-05-10T07:05:11;34.50;28.50;19.00
78512;PMS5003;67809;55.034;73.462;2023-05-10T07:07:38;31.25;26.75;18.00
78512;PMS5003;67809;55.034;73.462;2023-05-10T07:10:04;35.00;29.00;20.00
78512;PMS5003;67809;55.034;73.462;2023-05-10T07:12:31;34.50;29.00;20.00
78512;PMS5003;67809;55.034;73.462;2023-05-10T07:14:57;34.25;29.00;20.00
78512;PMS5003;67809;55.034;73.462;2023-05-10T07:17:23;34.00;29.00;21.00
78512;PMS5003;67809;55.034;73.462;2023-05-10T07:19:50;32.00;28.00;19.00
78512;PMS5003;67809;55.034;73.462;2023-05-10T07:22:20;31.00;27.00;19.00
78512;PMS5003;67809;55.034;73.462;2023-05-10T07:24:46;32.50;27.50;19.00
78512;PMS5003;67809;55.034;73.462;2023-05-10T07:27:12;34.00;29.00;20.00
78512;PMS5003;67809;55.034;73.462;2023-05-10T07:29:38;33.00;28.50;21.00
78512;PMS5003;67809;55.034;73.462;2023-05-10T07:32:06;35.25;29.25;20.00
78512;PMS5003;67809;55.034;73.462;2023-05-10T07:34:32;33.25;28.00;19.00
78512;PMS5003;67809;55.034;73.462;2023-05-10T07:36:59;36.00;29.00;20.00
78512;PMS5003;67809;55.034;73.462;2023-05-10T07:39:26;30.00;26.00;18.00
78512;PMS5003;67809;55.034;73.462;2023-05-10T07:41:52;33.00;28.00;20.00
78512;PMS5003;67809;55.034;73.462;2023-05-10T07:44:19;32.50;27.00;18.00
78512;PMS5003;67809;55.034;73.462;2023-05-10T07:46:46;35.00;30.00;21.00
78512;PMS5003;67809;55.034;73.462;2023-05-10T07:49:12;31.00;26.00;18.00
78512;PMS5003;67809;55.034;73.462;2023-05-10T07:51:38;33.25;28.00;19.75
78512;PMS5003;67809;55.034;73.462;2023-05-10T07:54:05;33.00;28.00;19.67
78512;PMS5003;67809;55.034;73.462;2023-05-10T07:56:31;33.50;27.50;19.00
78512;PMS5003;67809;55.034;73.462;2023-05-10T07:58:58;30.00;27.00;19.00
78512;PMS5003;67809;55.034;73.462;2023-05-10T08:01:26;32.00;27.25;19.00
78512;PMS5003;67809;55.034;73.462;2023-05-10T08:03:52;35.33;29.67;20.33
78512;PMS5003;67809;55.034;73.462;2023-05-10T08:06:19;34.00;29.00;20.00
78512;PMS5003;67809;55.034;73.462;2023-05-10T08:08:46;33.25;28.00;19.00
78512;PMS5003;67809;55.034;73.462;2023-05-10T08:11:15;30.00;26.00;18.00
78512;PMS5003;67809;55.034;73.462;2023-05-10T08:13:42;35.33;28.00;20.00
78512;PMS5003;67809;55.034;73.462;2023-05-10T08:16:08;38.00;32.00;21.00
78512;PMS5003;67809;55.034;73.462;2023-05-10T08:18:34;36.50;30.00;20.00
78512;PMS5003;67809;55.034;73.462;2023-05-10T08:21:00;36.00;30.00;20.75
78512;PMS5003;67809;55.034;73.462;2023-05-10T08:23:26;34.00;28.00;19.00
78512;PMS5003;67809;55.034;73.462;2023-05-10T08:25:52;36.50;29.00;20.00
78512;PMS5003;67809;55.034;73.462;2023-05-10T08:28:19;31.00;26.00;18.00
78512;PMS5003;67809;55.034;73.462;2023-05-10T08:30:45;33.00;27.00;18.00
78512;PMS5003;67809;55.034;73.462;2023-05-10T08:33:11;31.75;26.75;19.00
78512;PMS5003;67809;55.034;73.462;2023-05-10T08:35:40;31.00;27.00;19.00
78512;PMS5003;67809;55.034;73.462;2023-05-10T08:38:07;34.00;27.75;19.00
78512;PMS5003;67809;55.034;73.462;2023-05-10T08:40:33;39.00;31.00;21.00
78512;PMS5003;67809;55.034;73.462;2023-05-10T08:43:04;35.75;29.00;20.00
78512;PMS5003;67809;55.034;73.462;2023-05-10T08:45:32;41.00;32.00;22.00
78512;PMS5003;67809;55.034;73.462;2023-05-10T08:47:59;35.25;29.00;20.00
78512;PMS5003;67809;55.034;73.462;2023-05-10T08:50:27;34.25;29.00;20.00
78512;PMS5003;67809;55.034;73.462;2023-05-10T08:52:57;31.50;26.75;19.75
78512;PMS5003;67809;55.034;73.462;2023-05-10T08:55:25;30.00;26.00;18.50
78512;PMS5003;67809;55.034;73.462;2023-05-10T08:57:51;28.75;25.75;19.00
78512;PMS5003;67809;55.034;73.462;2023-05-10T09:00:17;27.00;25.00;18.00
78512;PMS5003;67809;55.034;73.462;2023-05-10T09:02:44;28.00;25.00;18.00
78512;PMS5003;67809;55.034;73.462;2023-05-10T09:05:12;24.75;23.00;17.00
78512;PMS5003;67809;55.034;73.462;2023-05-10T09:07:38;24.50;22.75;16.75
78512;PMS5003;67809;55.034;73.462;2023-05-10T09:10:04;25.50;23.25;17.00
78512;PMS5003;67809;55.034;73.462;2023-05-10T09:12:31;25.50;23.25;16.00
78512;PMS5003;67809;55.034;73.462;2023-05-10T09:14:57;26.33;23.67;18.00
78512;PMS5003;67809;55.034;73.462;2023-05-10T09:17:25;27.00;24.00;17.75
78512;PMS5003;67809;55.034;73.462;2023-05-10T09:20:02;26.75;25.00;18.00
78512;PMS5003;67809;55.034;73.462;2023-05-10T09:22:30;26.00;23.00;17.00
78512;PMS5003;67809;55.034;73.462;2023-05-10T09:27:31;24.00;21.75;16.00
78512;PMS5003;67809;55.034;73.462;2023-05-10T09:29:58;28.00;25.00;18.00
78512;PMS5003;67809;55.034;73.462;2023-05-10T09:32:40;26.00;23.00;16.00
78512;PMS5003;67809;55.034;73.462;2023-05-10T09:35:09;24.50;23.25;17.00
78512;PMS5003;67809;55.034;73.462;2023-05-10T09:37:36;24.00;22.75;16.00
78512;PMS5003;67809;55.034;73.462;2023-05-10T09:40:05;24.00;22.00;16.00
78512;PMS5003;67809;55.034;73.462;2023-05-10T09:42:33;24.00;23.00;16.00
78512;PMS5003;67809;55.034;73.462;2023-05-10T09:45:01;22.50;21.00;15.75
78512;PMS5003;67809;55.034;73.462;2023-05-10T09:47:27;24.50;22.00;16.00
78512;PMS5003;67809;55.034;73.462;2023-05-10T09:49:53;22.00;20.75;14.75
78512;PMS5003;67809;55.034;73.462;2023-05-10T09:52:23;22.00;21.00;15.75
78512;PMS5003;67809;55.034;73.462;2023-05-10T09:54:52;19.67;18.00;13.00
78512;PMS5003;67809;55.034;73.462;2023-05-10T09:57:22;21.75;20.00;15.00
78512;PMS5003;67809;55.034;73.462;2023-05-10T09:59:48;20.75;19.75;14.25
78512;PMS5003;67809;55.034;73.462;2023-05-10T10:02:16;21.25;20.00;14.00
78512;PMS5003;67809;55.034;73.462;2023-05-10T10:04:42;21.00;20.00;15.00
78512;PMS5003;67809;55.034;73.462;2023-05-10T10:07:09;20.75;19.25;14.25
78512;PMS5003;67809;55.034;73.462;2023-05-10T10:09:35;22.00;20.50;15.00
78512;PMS5003;67809;55.034;73.462;2023-05-10T10:12:01;18.75;18.25;13.75
78512;PMS5003;67809;55.034;73.462;2023-05-10T10:14:28;20.00;18.67;14.33
78512;PMS5003;67809;55.034;73.462;2023-05-10T10:16:54;20.00;18.00;14.00
78512;PMS5003;67809;55.034;73.462;2023-05-10T10:19:21;21.00;19.00;14.00
78512;PMS5003;67809;55.034;73.462;2023-05-10T10:21:48;20.00;19.00;13.75
78512;PMS5003;67809;55.034;73.462;2023-05-10T10:24:15;19.75;19.00;14.25
78512;PMS5003;67809;55.034;73.462;2023-05-10T10:26:41;22.50;20.00;15.00
78512;PMS5003;67809;55.034;73.462;2023-05-10T10:31:55;22.25;20.00;14.75
78512;PMS5003;67809;55.034;73.462;2023-05-10T10:34:29;23.00;21.33;16.00
78512;PMS5003;67809;55.034;73.462;2023-05-10T10:36:57;25.25;22.00;15.00
78512;PMS5003;67809;55.034;73.462;2023-05-10T10:39:24;20.50;18.25;13.00
78512;PMS5003;67809;55.034;73.462;2023-05-10T10:41:54;23.50;20.75;15.00
78512;PMS5003;67809;55.034;73.462;2023-05-10T10:52:22;23.50;21.00;15.00
78512;PMS5003;67809;55.034;73.462;2023-05-10T10:55:08;20.50;18.75;13.00
78512;PMS5003;67809;55.034;73.462;2023-05-10T11:00:22;23.00;21.00;16.00
78512;PMS5003;67809;55.034;73.462;2023-05-10T11:02:59;21.75;20.00;16.00
78512;PMS5003;67809;55.034;73.462;2023-05-10T11:05:33;21.00;20.00;14.67
78512;PMS5003;67809;55.034;73.462;2023-05-10T11:08:19;24.00;21.00;15.00
78512;PMS5003;67809;55.034;73.462;2023-05-10T11:10:49;24.00;21.75;15.50
78512;PMS5003;67809;55.034;73.462;2023-05-10T11:16:14;22.00;19.00;14.00
78512;PMS5003;67809;55.034;73.462;2023-05-10T11:21:25;22.75;21.00;15.00
78512;PMS5003;67809;55.034;73.462;2023-05-10T11:23:53;21.00;19.00;14.00
78512;PMS5003;67809;55.034;73.462;2023-05-10T11:26:22;24.50;22.00;15.00
78512;PMS5003;67809;55.034;73.462;2023-05-10T11:28:53;22.00;19.00;13.50
78512;PMS5003;67809;55.034;73.462;2023-05-10T11:31:22;25.00;22.00;15.00
78512;PMS5003;67809;55.034;73.462;2023-05-10T11:33:57;25.75;23.00;16.00
78512;PMS5003;67809;55.034;73.462;2023-05-10T11:36:24;25.00;22.00;16.00
78512;PMS5003;67809;55.034;73.462;2023-05-10T11:38:51;25.25;22.00;15.50
78512;PMS5003;67809;55.034;73.462;2023-05-10T11:41:18;24.00;21.00;15.00
78512;PMS5003;67809;55.034;73.462;2023-05-10T11:43:45;28.00;23.00;15.00
78512;PMS5003;67809;55.034;73.462;2023-05-10T11:46:12;24.00;22.00;16.00
78512;PMS5003;67809;55.034;73.462;2023-05-10T11:48:39;27.00;24.00;16.00
78512;PMS5003;67809;55.034;73.462;2023-05-10T11:51:09;29.00;25.00;18.00
78512;PMS5003;67809;55.034;73.462;2023-05-10T11:53:36;30.00;25.50;17.00
78512;PMS5003;67809;55.034;73.462;2023-05-10T11:56:03;26.00;23.25;17.00
78512;PMS5003;67809;55.034;73.462;2023-05-10T11:58:29;27.00;24.00;17.75
78512;PMS5003;67809;55.034;73.462;2023-05-10T12:00:56;29.25;25.25;19.00
78512;PMS5003;67809;55.034;73.462;2023-05-10T12:03:22;29.00;25.00;17.00
78512;PMS5003;67809;55.034;73.462;2023-05-10T12:05:48;34.00;27.00;17.75
78512;PMS5003;67809;55.034;73.462;2023-05-10T12:08:15;33.00;27.75;19.75
78512;PMS5003;67809;55.034;73.462;2023-05-10T12:10:44;30.75;26.00;18.00
78512;PMS5003;67809;55.034;73.462;2023-05-10T12:13:13;31.50;24.50;17.25
78512;PMS5003;67809;55.034;73.462;2023-05-10T12:15:41;32.00;26.50;18.00
78512;PMS5003;67809;55.034;73.462;2023-05-10T12:18:08;27.75;24.00;17.00
78512;PMS5003;67809;55.034;73.462;2023-05-10T12:20:37;24.75;22.75;16.50
78512;PMS5003;67809;55.034;73.462;2023-05-10T12:23:04;29.00;25.00;18.00
78512;PMS5003;67809;55.034;73.462;2023-05-10T12:25:34;29.50;26.00;18.00
78512;PMS5003;67809;55.034;73.462;2023-05-10T12:28:03;34.00;27.75;19.00
78512;PMS5003;67809;55.034;73.462;2023-05-10T12:30:31;28.00;24.00;16.50
78512;PMS5003;67809;55.034;73.462;2023-05-10T12:33:01;27.00;23.00;16.00
78512;PMS5003;67809;55.034;73.462;2023-05-10T12:35:30;25.25;22.75;16.00
78512;PMS5003;67809;55.034;73.462;2023-05-10T12:37:57;26.00;22.00;15.00
78512;PMS5003;67809;55.034;73.462;2023-05-10T12:40:23;25.00;21.25;14.75
78512;PMS5003;67809;55.034;73.462;2023-05-10T12:42:49;25.50;21.25;15.00
78512;PMS5003;67809;55.034;73.462;2023-05-10T12:45:16;25.00;21.00;14.00
78512;PMS5003;67809;55.034;73.462;2023-05-10T12:47:43;20.50;18.75;13.00
78512;PMS5003;67809;55.034;73.462;2023-05-10T12:50:09;26.00;23.00;16.25
78512;PMS5003;67809;55.034;73.462;2023-05-10T12:52:36;25.00;22.50;16.00
78512;PMS5003;67809;55.034;73.462;2023-05-10T12:55:02;30.67;26.00;18.00
78512;PMS5003;67809;55.034;73.462;2023-05-10T12:57:29;29.00;24.75;17.00
78512;PMS5003;67809;55.034;73.462;2023-05-10T12:59:55;32.00;26.25;18.00
78512;PMS5003;67809;55.034;73.462;2023-05-10T13:02:21;30.25;24.00;16.00
78512;PMS5003;67809;55.034;73.462;2023-05-10T13:04:49;29.75;24.00;15.75
78512;PMS5003;67809;55.034;73.462;2023-05-10T13:07:15;23.00;20.00;16.00
78512;PMS5003;67809;55.034;73.462;2023-05-10T13:09:42;25.25;21.75;15.00
78512;PMS5003;67809;55.034;73.462;2023-05-10T13:12:08;26.00;22.00;15.00
78512;PMS5003;67809;55.034;73.462;2023-05-10T13:14:34;31.00;25.00;16.75
78512;PMS5003;67809;55.034;73.462;2023-05-10T13:17:00;27.00;23.00;16.00
78512;PMS5003;67809;55.034;73.462;2023-05-10T13:19:26;23.25;19.75;14.50
78512;PMS5003;67809;55.034;73.462;2023-05-10T13:21:53;21.50;19.00;13.75
78512;PMS5003;67809;55.034;73.462;2023-05-10T13:24:19;28.25;24.00;16.00
78512;PMS5003;67809;55.034;73.462;2023-05-10T13:26:45;27.00;23.00;17.00
78512;PMS5003;67809;55.034;73.462;2023-05-10T13:29:12;26.75;23.25;17.00
78512;PMS5003;67809;55.034;73.462;2023-05-10T13:31:38;26.00;21.50;15.00
78512;PMS5003;67809;55.034;73.462;2023-05-10T13:34:05;22.00;19.00;14.00
78512;PMS5003;67809;55.034;73.462;2023-05-10T13:36:31;26.00;21.33;14.33
78512;PMS5003;67809;55.034;73.462;2023-05-10T13:38:57;24.00;20.00;14.00
78512;PMS5003;67809;55.034;73.462;2023-05-10T13:41:23;24.00;20.50;14.00
78512;PMS5003;67809;55.034;73.462;2023-05-10T13:43:50;23.00;20.00;15.00
78512;PMS5003;67809;55.034;73.462;2023-05-10T13:46:16;24.67;21.67;15.00
78512;PMS5003;67809;55.034;73.462;2023-05-10T13:48:42;24.75;21.25;15.00
78512;PMS5003;67809;55.034;73.462;2023-05-10T13:51:09;23.00;20.00;14.00
78512;PMS5003;67809;55.034;73.462;2023-05-10T13:53:35;23.00;20.25;14.00
78512;PMS5003;67809;55.034;73.462;2023-05-10T13:56:02;24.33;20.00;13.67
78512;PMS5003;67809;55.034;73.462;2023-05-10T13:58:28;25.00;22.00;15.00
78512;PMS5003;67809;55.034;73.462;2023-05-10T14:00:55;24.00;21.00;14.00
78512;PMS5003;67809;55.034;73.462;2023-05-10T14:03:22;24.00;21.00;15.00
78512;PMS5003;67809;55.034;73.462;2023-05-10T14:05:48;29.00;25.00;18.00
78512;PMS5003;67809;55.034;73.462;2023-05-10T14:08:14;27.75;24.00;17.00
78512;PMS5003;67809;55.034;73.462;2023-05-10T14:10:40;33.75;28.00;20.00
78512;PMS5003;67809;55.034;73.462;2023-05-10T14:13:06;40.00;31.00;22.00